Terminal Aerodrome Forecast
Issued by NWS Wilmington, OH

Current Version | Previous Version | Graphics & Text | Print | Product List | Glossary On
Versions: 1 2 3 4 5 6 7 8 9 10 11 12 13 14 15 16
000
FTUS41 KILN 211000 AAB
TAFDAY
TAF AMD
KDAY 211016Z 2110/2206 01008KT P6SM SCT030 BKN040
     FM211200 02006KT P6SM SCT010 BKN025
     FM211500 02006KT P6SM OVC030
     FM211700 35008KT P6SM BKN035
     FM212200 30012KT P6SM SCT040=

USA.gov is the U.S. government's official web portal to all federal, state and local government web resources and services.